METAR AND TAF INFORMATION
METAR FOR LXGB
ADDS - METARS form results

(0447 UTC 28 October 2020)
Data provider http://aviationweather.gov/metar/data/
 
METAR text: LXGB 280350Z AUTO 27008KT 9999 // NCD 15/10 Q1020
Conditions at: LXGB (GIBRALTAR (CIV/M, GI) observed 0350 UTC 28 October 2020
Temperature: 15.0°C (59°F)
Dewpoint: 10.0°C (50°F) [RH = 72%]
Pressure (altimeter): 30.12 inches Hg (1020.0 mb)
Winds: from the W (270 degrees) at 9 MPH (8 knots; 4.1 m/s)
Visibility: 6 or more miles (10+ km)
Ceiling: at least 12,000 feet AGL
Clouds: sky clear below 12,000 feet AGL
Weather: no significant weather observed at this time

 AIRPORT MAP

 RUNWAY INFORMATION

 AIRPORT FREQUENCIES
Type A/D Name APP Frequency 122.8 MHZ
Type OPS Name GIB TALKDO Frequency 130.4 MHZ
Type TWR Name TWR Frequency 131.2 MHZ

 AIRPORT NEAR NAVIGATION AIDS
Type TACAN Name Gibraltar Frequency 113600 KHZ



2018 Air Astana Virtual Airline